createdAt,value
2023-01-13T00:02:23.544Z,2.01
2023-01-13T00:05:26.834Z,1.91
2023-01-13T00:08:29.535Z,1.80
2023-01-13T00:11:32.469Z,1.78
2023-01-13T00:14:35.845Z,1.77
2023-01-13T00:17:39.199Z,1.84
2023-01-13T00:20:42.060Z,1.77
2023-01-13T00:23:45.181Z,1.70
2023-01-13T00:26:47.737Z,1.71
2023-01-13T00:29:50.970Z,1.71
2023-01-13T00:32:54.332Z,1.76
2023-01-13T00:35:57.792Z,1.81
2023-01-13T00:39:00.636Z,1.82
2023-01-13T00:42:22.413Z,1.87
2023-01-13T00:45:25.032Z,1.92
2023-01-13T00:48:28.818Z,1.93
2023-01-13T00:51:31.471Z,2.07
2023-01-13T00:54:34.310Z,2.07
2023-01-13T00:57:36.915Z,2.05
2023-01-13T01:00:39.753Z,2.03
2023-01-13T01:03:42.580Z,2.02
2023-01-13T01:06:45.517Z,2.00
2023-01-13T01:09:49.632Z,2.07
2023-01-13T01:12:52.663Z,2.11
2023-01-13T01:15:55.207Z,2.07
2023-01-13T01:18:58.359Z,2.07
2023-01-13T01:22:00.937Z,2.08
2023-01-13T01:25:03.956Z,2.08
2023-01-13T01:28:06.642Z,2.05
2023-01-13T01:31:15.140Z,2.05
2023-01-13T01:34:17.814Z,2.03
2023-01-13T01:37:20.727Z,2.05
2023-01-13T01:40:24.197Z,2.04
2023-01-13T01:44:04.120Z,2.02
2023-01-13T01:47:06.971Z,1.98
2023-01-13T01:50:10.495Z,1.99
2023-01-13T01:53:17.793Z,2.11
2023-01-13T01:56:21.123Z,2.15
2023-01-13T01:59:24.095Z,2.19
2023-01-13T02:02:28.935Z,2.18
2023-01-13T02:05:32.013Z,2.22
2023-01-13T02:08:36.764Z,2.17
2023-01-13T02:11:58.404Z,2.07
2023-01-13T02:15:04.913Z,1.97
2023-01-13T02:18:42.931Z,1.88
2023-01-13T02:22:23.681Z,1.86
2023-01-13T02:25:38.599Z,1.81
2023-01-13T02:29:38.022Z,1.79
2023-01-13T02:32:50.129Z,1.72
2023-01-13T02:35:55.663Z,1.66
2023-01-13T02:39:05.026Z,1.57
2023-01-13T02:42:33.111Z,1.49
2023-01-13T02:45:40.089Z,1.44
2023-01-13T02:48:44.867Z,1.41
2023-01-13T02:51:48.784Z,1.38
2023-01-13T02:54:55.433Z,1.30
2023-01-13T02:58:00.159Z,1.26
2023-01-13T03:01:03.246Z,1.41
2023-01-13T03:04:14.216Z,1.34
2023-01-13T03:07:35.107Z,1.24
2023-01-13T03:10:50.118Z,1.25
2023-01-13T03:14:14.739Z,1.22
2023-01-13T03:17:17.912Z,1.24
2023-01-13T03:20:28.720Z,1.26
2023-01-13T03:23:33.222Z,1.44
2023-01-13T03:26:41.099Z,1.45
2023-01-13T03:29:56.570Z,1.55
2023-01-13T03:33:05.561Z,1.51
2023-01-13T03:36:10.811Z,1.65
2023-01-13T03:39:17.325Z,1.66
2023-01-13T03:42:23.850Z,1.65
2023-01-13T03:45:26.884Z,1.57
2023-01-13T03:48:31.408Z,1.58
2023-01-13T03:51:35.135Z,1.62
2023-01-13T03:54:46.920Z,1.62
2023-01-13T03:57:59.883Z,1.52
2023-01-13T04:01:13.266Z,1.35
2023-01-13T04:04:20.808Z,1.24
2023-01-13T04:07:38.509Z,1.11
2023-01-13T04:10:48.875Z,1.04
2023-01-13T04:13:53.347Z,0.90
2023-01-13T04:16:56.781Z,0.93
2023-01-13T04:19:59.425Z,1.04
2023-01-13T04:23:02.439Z,1.01
2023-01-13T04:26:05.046Z,0.97
2023-01-13T04:29:08.415Z,0.93
2023-01-13T04:32:11.267Z,0.82
2023-01-13T04:35:14.209Z,0.75
2023-01-13T04:38:18.850Z,0.64
2023-01-13T04:41:21.738Z,0.63
2023-01-13T04:44:24.369Z,0.74
2023-01-13T04:47:27.287Z,0.78
2023-01-13T04:50:30.486Z,0.65
2023-01-13T04:53:33.269Z,1.16
2023-01-13T04:56:35.925Z,1.26
2023-01-13T04:59:38.993Z,1.29
2023-01-13T05:02:41.744Z,1.05
2023-01-13T05:05:44.809Z,0.92
2023-01-13T05:08:47.395Z,0.87
2023-01-13T05:12:08.882Z,0.78
2023-01-13T05:15:33.502Z,0.76
2023-01-13T05:18:36.771Z,0.72
2023-01-13T05:21:58.434Z,0.70
2023-01-13T05:25:20.184Z,0.89
2023-01-13T05:28:24.347Z,0.91
2023-01-13T05:31:27.234Z,0.94
2023-01-13T05:34:29.864Z,0.95
2023-01-13T05:37:33.093Z,0.95
2023-01-13T05:40:57.780Z,0.93
2023-01-13T05:44:01.972Z,0.99
2023-01-13T05:47:04.599Z,0.99
2023-01-13T05:50:08.053Z,0.99
2023-01-13T05:53:11.007Z,1.07
2023-01-13T05:56:13.931Z,1.05
2023-01-13T05:59:16.663Z,1.04
2023-01-13T06:02:19.595Z,0.99
2023-01-13T06:05:22.813Z,0.99
2023-01-13T06:08:25.911Z,1.02
2023-01-13T06:11:29.145Z,1.17
2023-01-13T06:14:41.196Z,1.14
2023-01-13T06:17:44.380Z,1.25
2023-01-13T06:20:48.050Z,1.21
2023-01-13T06:23:51.080Z,1.07
2023-01-13T06:26:53.697Z,1.07
2023-01-13T06:29:57.253Z,1.05
2023-01-13T06:33:02.242Z,1.04
2023-01-13T06:36:11.224Z,0.97
2023-01-13T06:39:20.437Z,0.91
2023-01-13T06:42:42.604Z,0.92
2023-01-13T06:45:55.958Z,0.93
2023-01-13T06:48:59.264Z,0.90
2023-01-13T06:52:02.120Z,0.83
2023-01-13T06:55:05.741Z,0.90
2023-01-13T06:58:08.523Z,1.01
2023-01-13T07:01:11.921Z,0.93
2023-01-13T07:04:14.786Z,1.11
2023-01-13T07:07:17.763Z,1.06
2023-01-13T07:10:22.564Z,1.09
2023-01-13T07:13:44.359Z,1.10
2023-01-13T07:16:47.185Z,1.08
2023-01-13T07:19:50.630Z,1.14
2023-01-13T07:22:55.000Z,1.21
2023-01-13T07:25:58.495Z,1.22
2023-01-13T07:29:01.452Z,1.20
2023-01-13T07:32:05.708Z,1.35
2023-01-13T07:35:08.412Z,1.41
2023-01-13T07:41:34.394Z,1.57
2023-01-13T07:44:37.883Z,1.60
2023-01-13T07:47:40.951Z,1.63
2023-01-13T07:50:44.345Z,1.73
2023-01-13T07:53:46.984Z,1.81
2023-01-13T07:56:50.007Z,1.97
2023-01-13T07:59:52.803Z,2.10
2023-01-13T08:02:56.063Z,2.21
2023-01-13T08:06:01.583Z,2.33
2023-01-13T08:12:28.109Z,2.47
2023-01-13T08:15:34.985Z,2.58
2023-01-13T08:18:38.893Z,2.63
2023-01-13T08:21:41.599Z,2.72
2023-01-13T08:24:44.569Z,2.80
2023-01-13T08:27:49.707Z,2.67
2023-01-13T08:30:54.279Z,2.80
2023-01-13T08:33:56.925Z,2.96
2023-01-13T08:36:59.794Z,2.96
2023-01-13T08:40:05.360Z,3.02
2023-01-13T08:43:09.843Z,3.07
2023-01-13T08:46:14.974Z,3.23
2023-01-13T08:49:19.321Z,3.33
2023-01-13T08:52:22.630Z,3.45
2023-01-13T08:55:25.849Z,3.51
2023-01-13T08:58:30.214Z,3.55
2023-01-13T09:01:34.176Z,3.62
2023-01-13T09:04:37.069Z,3.63
2023-01-13T09:07:40.003Z,3.62
2023-01-13T09:10:42.778Z,3.47
2023-01-13T09:13:45.708Z,3.59
2023-01-13T09:16:48.429Z,3.62
2023-01-13T09:19:51.486Z,3.66
2023-01-13T09:22:54.182Z,3.72
2023-01-13T09:25:57.272Z,3.73
2023-01-13T09:29:01.687Z,3.86
2023-01-13T09:32:05.358Z,3.92
2023-01-13T09:35:09.767Z,3.99
2023-01-13T09:38:12.739Z,4.12
2023-01-13T09:41:46.269Z,4.34
2023-01-13T09:44:55.450Z,4.62
2023-01-13T09:48:16.400Z,4.97
2023-01-13T09:51:27.412Z,5.24
2023-01-13T09:54:45.669Z,5.39
2023-01-13T09:57:48.839Z,5.36
2023-01-13T10:01:06.894Z,5.50
2023-01-13T10:04:15.010Z,5.76
2023-01-13T10:07:18.298Z,5.92
2023-01-13T10:10:46.511Z,6.06
2023-01-13T10:13:59.766Z,6.55
2023-01-13T10:17:28.669Z,6.58
2023-01-13T10:21:02.851Z,6.24
2023-01-13T10:24:15.592Z,6.57
2023-01-13T10:27:35.335Z,6.40
2023-01-13T10:30:46.423Z,6.63
2023-01-13T10:33:49.725Z,6.72
2023-01-13T10:36:59.504Z,6.51
2023-01-13T10:40:07.300Z,6.45
2023-01-13T10:43:12.278Z,6.56
2023-01-13T10:46:16.468Z,6.62
2023-01-13T10:49:28.138Z,6.37
2023-01-13T10:52:33.456Z,6.48
2023-01-13T10:56:16.585Z,6.60
2023-01-13T10:59:19.957Z,6.59
2023-01-13T11:02:29.432Z,6.66
2023-01-13T11:05:32.525Z,6.83
2023-01-13T11:08:42.990Z,6.85
2023-01-13T11:11:47.526Z,6.79
2023-01-13T11:14:51.451Z,6.91
2023-01-13T11:18:25.740Z,7.04
2023-01-13T11:21:35.297Z,7.11
2023-01-13T11:25:30.575Z,6.92
2023-01-13T11:28:41.431Z,7.04
2023-01-13T11:31:49.671Z,7.17
2023-01-13T11:34:57.461Z,7.20
2023-01-13T11:38:07.433Z,7.16
2023-01-13T11:41:39.095Z,7.17
2023-01-13T11:44:46.784Z,7.06
2023-01-13T11:47:51.908Z,7.21
2023-01-13T11:51:01.095Z,6.80
2023-01-13T11:54:15.101Z,7.26
2023-01-13T11:57:43.194Z,7.00
2023-01-13T12:01:07.258Z,7.11
2023-01-13T12:04:21.652Z,7.13
2023-01-13T12:07:55.592Z,6.90
2023-01-13T12:11:05.485Z,6.76
2023-01-13T12:14:18.290Z,6.91
2023-01-13T12:17:38.648Z,6.93
2023-01-13T12:21:01.053Z,7.03
2023-01-13T12:24:24.881Z,6.88
2023-01-13T12:27:49.266Z,6.82
2023-01-13T12:30:56.927Z,6.62
2023-01-13T12:34:27.677Z,6.60
2023-01-13T12:37:39.805Z,6.49
2023-01-13T12:41:01.611Z,6.59
2023-01-13T12:44:20.572Z,6.55
2023-01-13T12:47:43.631Z,6.55
2023-01-13T12:51:02.721Z,6.54
2023-01-13T12:54:37.889Z,6.64
2023-01-13T12:57:56.042Z,6.74
2023-01-13T13:01:01.604Z,6.79
2023-01-13T13:04:09.629Z,6.80
2023-01-13T13:07:18.909Z,6.88
2023-01-13T13:10:37.969Z,6.86
2023-01-13T13:13:45.472Z,6.91
2023-01-13T13:16:51.051Z,6.93
2023-01-13T13:19:56.034Z,6.99
2023-01-13T13:22:59.027Z,6.93
2023-01-13T13:26:05.804Z,6.90
2023-01-13T13:29:50.305Z,6.83
2023-01-13T13:33:22.016Z,6.90
2023-01-13T13:36:54.061Z,6.93
2023-01-13T13:40:14.963Z,6.89
2023-01-13T13:43:38.342Z,6.90
2023-01-13T13:46:49.250Z,6.89
2023-01-13T13:49:56.765Z,6.93
2023-01-13T13:53:05.343Z,6.90
2023-01-13T13:56:19.140Z,7.05
2023-01-13T13:59:24.118Z,7.06
2023-01-13T14:02:30.321Z,6.99
2023-01-13T14:05:35.167Z,6.94
2023-01-13T14:08:38.956Z,6.89
2023-01-13T14:11:41.962Z,6.81
2023-01-13T14:14:45.905Z,6.73
2023-01-13T14:17:48.819Z,6.63
2023-01-13T14:20:54.407Z,6.53
2023-01-13T14:24:10.733Z,6.46
2023-01-13T14:27:18.559Z,6.40
2023-01-13T14:30:26.273Z,6.36
2023-01-13T14:33:41.431Z,6.30
2023-01-13T14:36:47.895Z,6.25
2023-01-13T14:39:50.763Z,6.21
2023-01-13T14:43:14.898Z,6.16
2023-01-13T14:46:18.034Z,6.07
2023-01-13T14:49:46.918Z,5.88
2023-01-13T14:52:54.707Z,5.89
2023-01-13T14:55:58.760Z,5.84
2023-01-13T14:59:34.007Z,5.79
2023-01-13T15:02:41.540Z,5.75
2023-01-13T15:05:50.049Z,5.63
2023-01-13T15:08:53.091Z,5.75
2023-01-13T15:11:58.810Z,5.75
2023-01-13T15:15:23.636Z,5.75
2023-01-13T15:18:27.290Z,5.71
2023-01-13T15:21:31.196Z,5.65
2023-01-13T15:24:33.880Z,5.64
2023-01-13T15:27:38.462Z,5.64
2023-01-13T15:30:42.848Z,5.69
2023-01-13T15:33:45.802Z,5.61
2023-01-13T15:36:48.420Z,5.54
2023-01-13T15:39:51.483Z,5.49
2023-01-13T15:43:12.466Z,5.47
2023-01-13T15:46:36.748Z,5.51
2023-01-13T15:49:45.568Z,5.53
2023-01-13T15:52:48.360Z,5.52
2023-01-13T15:55:53.140Z,5.53
2023-01-13T15:58:56.086Z,5.52
2023-01-13T16:01:58.703Z,5.51
2023-01-13T16:05:01.998Z,5.51
2023-01-13T16:08:05.106Z,5.48
2023-01-13T16:11:10.650Z,5.45
2023-01-13T16:14:13.237Z,5.43
2023-01-13T16:17:21.803Z,5.44
2023-01-13T16:20:26.842Z,5.40
2023-01-13T16:23:29.736Z,5.38
2023-01-13T16:26:36.291Z,5.38
2023-01-13T16:29:39.443Z,5.34
2023-01-13T16:32:42.194Z,5.41
2023-01-13T16:36:10.554Z,5.52
2023-01-13T16:39:20.306Z,5.47
2023-01-13T16:42:23.194Z,5.49
2023-01-13T16:45:26.718Z,5.64
2023-01-13T16:48:29.614Z,5.67
2023-01-13T16:51:33.379Z,5.63
2023-01-13T16:54:36.313Z,5.71
2023-01-13T16:57:38.980Z,5.75
2023-01-13T17:00:41.855Z,5.71
2023-01-13T17:03:44.569Z,5.64
2023-01-13T17:06:58.075Z,5.67
2023-01-13T17:10:01.203Z,5.61
2023-01-13T17:13:14.740Z,5.45
2023-01-13T17:16:21.609Z,5.55
2023-01-13T17:19:25.651Z,5.31
2023-01-13T17:22:28.296Z,5.22
2023-01-13T17:25:31.058Z,5.42
2023-01-13T17:28:33.854Z,5.41
2023-01-13T17:31:36.702Z,5.38
2023-01-13T17:34:40.286Z,5.44
2023-01-13T17:37:43.130Z,5.43
2023-01-13T17:40:45.942Z,5.42
2023-01-13T17:43:48.821Z,5.39
2023-01-13T17:46:51.569Z,5.36
2023-01-13T17:49:54.728Z,5.30
2023-01-13T17:52:57.343Z,5.26
2023-01-13T17:56:00.102Z,5.24
2023-01-13T17:59:02.690Z,5.23
2023-01-13T18:02:05.676Z,5.20
2023-01-13T18:05:09.049Z,5.20
2023-01-13T18:08:11.521Z,5.15
2023-01-13T18:11:18.774Z,5.16
2023-01-13T18:14:22.835Z,5.05
2023-01-13T18:17:25.670Z,5.14
2023-01-13T18:20:48.842Z,4.90
2023-01-13T18:24:11.650Z,4.99
2023-01-13T18:27:19.224Z,4.91
2023-01-13T18:30:26.963Z,4.84
2023-01-13T18:33:29.576Z,4.79
2023-01-13T18:36:32.685Z,4.83
2023-01-13T18:39:37.466Z,4.77
2023-01-13T18:42:54.286Z,4.86
2023-01-13T18:45:57.052Z,4.90
2023-01-13T18:48:59.919Z,4.89
2023-01-13T18:52:02.855Z,4.77
2023-01-13T18:55:05.937Z,4.73
2023-01-13T18:58:08.523Z,4.80
2023-01-13T19:01:11.615Z,4.67
2023-01-13T19:04:15.969Z,4.70
2023-01-13T19:07:23.271Z,4.88
2023-01-13T19:10:31.789Z,4.92
2023-01-13T19:13:36.054Z,4.69
2023-01-13T19:16:38.887Z,4.76
2023-01-13T19:19:44.030Z,4.97
2023-01-13T19:22:54.061Z,4.93
2023-01-13T19:26:01.246Z,5.06
2023-01-13T19:29:04.047Z,5.01
2023-01-13T19:32:07.842Z,5.05
2023-01-13T19:35:13.114Z,4.98
2023-01-13T19:38:16.135Z,5.07
2023-01-13T19:41:37.372Z,4.94
2023-01-13T19:44:59.054Z,4.86
2023-01-13T19:48:02.534Z,4.78
2023-01-13T19:51:06.240Z,4.73
2023-01-13T19:54:09.323Z,4.68
2023-01-13T19:57:12.583Z,4.68
2023-01-13T20:00:20.490Z,4.67
2023-01-13T20:03:26.072Z,4.64
2023-01-13T20:06:32.734Z,4.65
2023-01-13T20:09:35.854Z,4.62
2023-01-13T20:12:39.014Z,4.62
2023-01-13T20:15:42.517Z,4.60
2023-01-13T20:18:49.812Z,4.65
2023-01-13T20:21:53.439Z,4.62
2023-01-13T20:24:56.744Z,4.60
2023-01-13T20:28:02.045Z,4.58
2023-01-13T20:31:11.547Z,4.53
2023-01-13T20:34:15.455Z,4.49
2023-01-13T20:37:18.190Z,4.46
2023-01-13T20:40:22.332Z,4.41
2023-01-13T20:43:24.865Z,4.39
2023-01-13T20:46:28.125Z,4.35
2023-01-13T20:49:31.050Z,4.30
2023-01-13T20:52:34.071Z,4.29
2023-01-13T20:55:39.720Z,4.25
2023-01-13T20:58:43.997Z,4.22
2023-01-13T21:01:46.761Z,4.18
2023-01-13T21:04:49.853Z,4.05
2023-01-13T21:07:52.362Z,4.00
2023-01-13T21:11:04.590Z,3.92
2023-01-13T21:14:34.298Z,3.92
2023-01-13T21:17:56.024Z,3.84
2023-01-13T21:21:11.745Z,3.75
2023-01-13T21:24:14.734Z,3.67
2023-01-13T21:27:17.285Z,3.61
2023-01-13T21:30:20.865Z,3.52
2023-01-13T21:33:23.354Z,3.67
2023-01-13T21:36:27.565Z,3.56
2023-01-13T21:39:30.148Z,3.50
2023-01-13T21:42:51.793Z,3.49
2023-01-13T21:46:12.746Z,3.62
2023-01-13T21:49:15.794Z,3.57
2023-01-13T21:52:18.547Z,3.56
2023-01-13T21:55:29.487Z,3.58
2023-01-13T21:58:32.096Z,3.54
2023-01-13T22:01:35.108Z,3.54
2023-01-13T22:04:39.693Z,3.46
2023-01-13T22:07:42.378Z,3.35
2023-01-13T22:11:00.100Z,3.26
2023-01-13T22:14:06.551Z,3.16
2023-01-13T22:17:09.370Z,3.16
2023-01-13T22:20:13.439Z,3.22
2023-01-13T22:23:17.168Z,3.18
2023-01-13T22:26:19.762Z,3.09
2023-01-13T22:29:22.509Z,3.01
2023-01-13T22:32:25.097Z,2.94
2023-01-13T22:35:27.949Z,2.89
2023-01-13T22:38:31.038Z,2.88
2023-01-13T22:41:34.092Z,2.86
2023-01-13T22:44:36.847Z,2.87
2023-01-13T22:47:39.788Z,2.84
2023-01-13T22:50:42.550Z,2.80
2023-01-13T22:53:45.435Z,2.76
2023-01-13T22:56:47.953Z,2.70
2023-01-13T22:59:50.878Z,2.67
2023-01-13T23:02:53.391Z,2.62
2023-01-13T23:05:57.130Z,2.53
2023-01-13T23:09:00.414Z,2.45
2023-01-13T23:12:03.735Z,2.39
2023-01-13T23:15:06.531Z,2.37
2023-01-13T23:18:09.327Z,2.33
2023-01-13T23:21:14.963Z,2.35
2023-01-13T23:24:18.095Z,2.35
2023-01-13T23:27:20.788Z,2.43
2023-01-13T23:30:24.097Z,2.39
2023-01-13T23:33:27.030Z,2.40
2023-01-13T23:36:30.132Z,2.40
2023-01-13T23:39:34.481Z,2.42
2023-01-13T23:42:37.312Z,2.32
2023-01-13T23:45:40.109Z,2.27
2023-01-13T23:48:43.007Z,2.25
2023-01-13T23:51:45.605Z,2.25
2023-01-13T23:54:48.417Z,2.18
2023-01-13T23:57:50.963Z,2.21
